Time;durP1;ratioP1;P1;durP2;ratioP2;P2;SDS_P1;SDS_P2;PMS_P1;PMS_P2;Temp;Humidity;BMP_temperature;BMP_pressure;BME280_temperature;BME280_humidity;BME280_pressure;Samples;Min_cycle;Max_cycle;Signal;HPM_P1;HPM_P2
2022/07/26 00:00:12;;;;;;;0.77;0.43;;;;;;;13.36;100.00;100037.38;7395215;19;20021;-56
2022/07/26 00:02:38;;;;;;;0.43;0.30;;;;;;;13.39;100.00;100033.63;7391164;19;20017;-56
2022/07/26 00:05:06;;;;;;;0.50;0.25;;;;;;;13.38;100.00;100034.88;7392564;19;20062;-56
2022/07/26 00:07:32;;;;;;;0.30;0.30;;;;;;;13.35;100.00;100027.47;7396650;19;20014;-56
2022/07/26 00:09:58;;;;;;;0.20;0.20;;;;;;;13.29;100.00;100035.03;7393071;19;20105;-56
2022/07/26 00:12:24;;;;;;;1.13;0.65;;;;;;;13.29;100.00;100035.03;7394369;19;20038;-56
2022/07/26 00:14:50;;;;;;;0.60;0.10;;;;;;;13.27;100.00;100040.34;7390748;19;20523;-56
2022/07/26 00:17:16;;;;;;;0.52;0.30;;;;;;;13.24;100.00;100038.53;7395938;19;20018;-56
2022/07/26 00:19:43;;;;;;;0.17;0.17;;;;;;;13.21;100.00;100047.88;7391709;19;20371;-56
2022/07/26 00:24:55;;;;;;;0.80;0.28;;;;;;;13.17;100.00;100050.13;7392483;19;20040;-55
2022/07/26 00:27:21;;;;;;;0.30;0.20;;;;;;;13.17;100.00;100050.13;7395448;19;20039;-56
2022/07/26 00:29:47;;;;;;;1.17;0.30;;;;;;;13.18;100.00;100062.84;7389753;19;21128;-56
2022/07/26 00:32:13;;;;;;;0.50;0.10;;;;;;;13.17;100.00;100063.31;7387447;19;20038;-56
2022/07/26 00:34:40;;;;;;;0.50;0.20;;;;;;;13.18;100.00;100068.44;7392060;19;20018;-56
2022/07/26 00:37:06;;;;;;;0.32;0.10;;;;;;;13.18;100.00;100062.84;7394632;19;20015;-56
2022/07/26 00:39:32;;;;;;;0.10;0.10;;;;;;;13.18;100.00;100068.44;7391529;19;20496;-56
2022/07/26 00:41:58;;;;;;;0.52;0.28;;;;;;;13.19;100.00;100069.22;7395049;19;20041;-55
2022/07/26 00:44:34;;;;;;;0.30;0.20;;;;;;;13.17;100.00;100066.91;7391412;19;20014;-55
2022/07/26 00:47:00;;;;;;;0.50;0.17;;;;;;;13.18;100.00;100068.44;7393957;19;20014;-56
2022/07/26 00:49:26;;;;;;;0.20;0.10;;;;;;;13.17;100.00;100072.50;7388896;19;20383;-56
2022/07/26 00:51:53;;;;;;;0.10;0.10;;;;;;;13.15;100.00;100069.41;7389104;19;20013;-55
2022/07/26 00:54:19;;;;;;;0.10;0.10;;;;;;;13.17;100.00;100072.50;7390984;19;20021;-55
2022/07/26 00:56:45;;;;;;;0.32;0.15;;;;;;;13.14;100.00;100070.69;7391209;19;20481;-55
2022/07/26 00:59:11;;;;;;;1.50;0.28;;;;;;;13.13;100.00;100065.56;7392657;19;20007;-55
2022/07/26 01:01:38;;;;;;;1.85;0.50;;;;;;;13.10;100.00;100067.34;7390745;19;20463;-55
2022/07/26 01:04:04;;;;;;;10.05;0.45;;;;;;;13.06;100.00;100066.00;7390347;19;20018;-56
2022/07/26 01:06:30;;;;;;;0.95;0.35;;;;;;;13.06;100.00;100074.38;7392245;19;20017;-55
2022/07/26 01:08:57;;;;;;;0.10;0.10;;;;;;;13.04;100.00;100071.28;7389494;19;20010;-55
2022/07/26 01:11:23;;;;;;;0.90;0.38;;;;;;;13.03;100.00;100078.88;7392468;19;20532;-55
2022/07/26 01:13:49;;;;;;;1.17;0.20;;;;;;;13.04;100.00;100077.63;7391033;19;20039;-55
2022/07/26 01:16:16;;;;;;;0.20;0.10;;;;;;;13.06;100.00;100077.19;7392321;19;20014;-55
2022/07/26 01:18:43;;;;;;;22.10;0.55;;;;;;;13.04;100.00;100080.41;7390310;19;20018;-55
2022/07/26 01:21:10;;;;;;;3.97;0.95;;;;;;;13.03;100.00;100078.88;7390514;19;20347;-55
2022/07/26 01:23:37;;;;;;;1.63;0.50;;;;;;;13.01;100.00;100070.22;7390271;19;20014;-55
2022/07/26 01:26:04;;;;;;;0.55;0.32;;;;;;;13.01;100.00;100075.81;7390911;19;20014;-55
2022/07/26 01:28:34;;;;;;;0.43;0.35;;;;;;;12.97;100.00;100078.03;7389725;19;20017;-55
2022/07/26 01:31:00;;;;;;;2.70;0.90;;;;;;;12.95;100.00;100075.72;7390313;19;20035;-55
2022/07/26 01:33:27;;;;;;;2.97;0.90;;;;;;;12.93;100.00;100081.03;7388368;19;20018;-55
2022/07/26 01:35:53;;;;;;;2.97;0.75;;;;;;;12.93;100.00;100074.66;7391351;19;20028;-55
2022/07/26 01:38:19;;;;;;;2.40;0.80;;;;;;;12.91;100.00;100083.53;7389659;19;20424;-55
2022/07/26 01:40:45;;;;;;;3.95;1.08;;;;;;;12.88;100.00;100089.34;7390567;19;20475;-55
2022/07/26 01:43:12;;;;;;;0.10;0.10;;;;;;;12.89;100.00;100088.06;7398848;19;20011;-55
2022/07/26 01:45:38;;;;;;;0.50;0.38;;;;;;;12.90;100.00;100098.00;7403356;19;20369;-55
2022/07/26 01:48:04;;;;;;;0.35;0.35;;;;;;;12.89;100.00;100096.47;7403385;19;20035;-55
2022/07/26 01:50:30;;;;;;;4.22;0.75;;;;;;;12.88;100.00;100092.13;7403212;19;20027;-56
2022/07/26 01:52:56;;;;;;;12.38;1.08;;;;;;;12.88;100.00;100092.13;7402149;19;20016;-56
2022/07/26 01:55:23;;;;;;;1.83;0.88;;;;;;;12.87;100.00;100094.16;7403963;19;20100;-55
2022/07/26 01:57:49;;;;;;;2.15;0.52;;;;;;;12.89;100.00;100102.81;7403828;19;20014;-56
2022/07/26 02:00:15;;;;;;;3.13;0.95;;;;;;;12.92;100.00;100099.06;7405968;19;20117;-55
2022/07/26 02:02:41;;;;;;;1.85;0.45;;;;;;;12.97;100.00;100102.44;7403994;19;20011;-56
2022/07/26 02:05:08;;;;;;;0.10;0.10;;;;;;;13.00;100.00;100102.22;7402697;19;20018;-55
2022/07/26 02:07:41;;;;;;;8.00;1.05;;;;;;;12.99;100.00;100100.69;7407602;19;20399;-55
2022/07/26 02:10:09;;;;;;;0.45;0.45;;;;;;;12.95;100.00;100100.09;7403880;19;20014;-55
2022/07/26 02:12:35;;;;;;;2.03;0.60;;;;;;;12.92;100.00;100107.47;7406758;19;20460;-55
2022/07/26 02:15:06;;;;;;;0.15;0.10;;;;;;;12.92;100.00;100101.09;7402780;19;20070;-55
2022/07/26 02:17:32;;;;;;;0.13;0.13;;;;;;;12.92;100.00;100101.88;7407025;19;20027;-55
2022/07/26 02:19:58;;;;;;;0.52;0.38;;;;;;;12.93;100.00;100102.59;7402835;19;20367;-55
2022/07/26 02:22:25;;;;;;;0.82;0.38;;;;;;;12.93;100.00;100094.22;7403643;19;20479;-55
2022/07/26 02:24:51;;;;;;;1.17;0.43;;;;;;;12.93;100.00;100097.03;7401631;19;20022;-56
2022/07/26 02:27:17;;;;;;;3.03;0.45;;;;;;;12.91;100.00;100105.13;7406254;19;20017;-55
2022/07/26 02:29:43;;;;;;;0.63;0.28;;;;;;;12.91;100.00;100110.72;7402847;19;20515;-55
2022/07/26 02:32:10;;;;;;;0.45;0.30;;;;;;;12.90;100.00;100109.97;7400620;19;20371;-55
2022/07/26 02:34:36;;;;;;;0.52;0.43;;;;;;;12.92;100.00;100115.06;7402203;19;20014;-55
2022/07/26 02:37:03;;;;;;;5.78;0.90;;;;;;;12.90;100.00;100117.56;7406144;19;20031;-55
2022/07/26 02:39:29;;;;;;;0.13;0.13;;;;;;;12.88;100.00;100118.06;7402665;19;20007;-55
2022/07/26 02:41:57;;;;;;;1.63;0.35;;;;;;;12.91;100.00;100116.31;7405337;19;20416;-55
2022/07/26 02:44:25;;;;;;;1.08;0.00;;;;;;;12.91;100.00;100111.50;7400732;19;20463;-55
2022/07/26 02:46:52;;;;;;;0.10;0.10;;;;;;;12.93;100.00;100125.75;7402869;19;20210;-55
2022/07/26 02:49:19;;;;;;;0.85;0.10;;;;;;;12.94;100.00;100132.13;7401963;19;20014;-55
2022/07/26 02:51:46;;;;;;;1.08;0.15;;;;;;;12.93;100.00;100127.78;7402595;19;20010;-55
2022/07/26 02:54:13;;;;;;;1.20;0.20;;;;;;;12.94;100.00;100120.94;7397718;19;20010;-55
2022/07/26 02:56:39;;;;;;;0.90;0.20;;;;;;;12.96;100.00;100124.03;7397685;19;20030;-55
2022/07/26 02:59:07;;;;;;;0.10;0.10;;;;;;;13.00;100.00;100124.59;7395281;19;20010;-55
2022/07/26 03:01:34;;;;;;;0.57;0.20;;;;;;;13.01;100.00;100130.94;7394291;19;20017;-55
2022/07/26 03:04:01;;;;;;;3.40;0.38;;;;;;;12.97;100.00;100127.59;7393347;19;20014;-55
2022/07/26 03:06:27;;;;;;;1.75;0.30;;;;;;;12.98;100.00;100134.72;7396924;19;20010;-55
2022/07/26 03:08:53;;;;;;;2.28;0.15;;;;;;;12.98;100.00;100132.69;7394861;19;20459;-55
2022/07/26 03:11:20;;;;;;;0.28;0.25;;;;;;;13.00;100.00;100135.00;7397153;19;20014;-55
2022/07/26 03:13:46;;;;;;;0.20;0.15;;;;;;;13.01;100.00;100137.31;7394757;19;20021;-55
2022/07/26 03:16:12;;;;;;;1.45;0.40;;;;;;;13.02;100.00;100138.84;7395405;19;20378;-55
2022/07/26 03:18:38;;;;;;;1.70;0.35;;;;;;;13.00;100.00;100141.34;7394697;19;20014;-55
2022/07/26 03:21:04;;;;;;;0.43;0.22;;;;;;;13.02;100.00;100138.06;7393933;19;20007;-55
2022/07/26 03:23:32;;;;;;;0.85;0.50;;;;;;;13.00;100.00;100140.56;7394786;19;20013;-55
2022/07/26 03:25:58;;;;;;;1.98;0.75;;;;;;;12.99;100.00;100139.06;7395425;19;20015;-55
2022/07/26 03:28:24;;;;;;;2.80;0.80;;;;;;;13.01;100.00;100140.13;7393864;19;20015;-55
2022/07/26 03:30:51;;;;;;;1.88;1.10;;;;;;;13.03;100.00;100146.00;7394124;19;20010;-55
2022/07/26 03:33:17;;;;;;;9.57;1.33;;;;;;;13.03;100.00;100146.00;7391530;19;20018;-55
2022/07/26 03:35:43;;;;;;;7.22;0.80;;;;;;;13.04;100.00;100147.50;7395486;19;20006;-55
2022/07/26 03:38:09;;;;;;;3.33;0.57;;;;;;;13.05;100.00;100153.91;7393482;19;20685;-55
2022/07/26 03:40:35;;;;;;;2.72;0.40;;;;;;;13.03;100.00;100151.59;7393237;19;20048;-55
2022/07/26 03:43:01;;;;;;;1.70;0.57;;;;;;;13.05;100.00;100154.69;7393309;19;20014;-55
2022/07/26 03:45:28;;;;;;;4.25;0.77;;;;;;;13.05;100.00;100154.69;7393073;19;20014;-55
2022/07/26 03:47:54;;;;;;;1.40;0.20;;;;;;;13.08;100.00;100167.69;7393647;19;20010;-55
2022/07/26 03:50:20;;;;;;;2.05;0.35;;;;;;;13.11;100.00;100175.13;7394182;19;20014;-55
2022/07/26 03:52:46;;;;;;;1.35;0.40;;;;;;;13.12;100.00;100171.06;7390401;19;20007;-55
2022/07/26 03:57:57;;;;;;;1.80;0.40;;;;;;;13.12;100.00;100175.88;7392479;19;20492;-55
2022/07/26 04:00:23;;;;;;;1.27;0.35;;;;;;;13.12;100.00;100176.66;7394732;19;20468;-55
2022/07/26 04:02:50;;;;;;;0.32;0.28;;;;;;;13.12;100.00;100171.06;7392571;19;20360;-55
2022/07/26 04:05:16;;;;;;;0.40;0.30;;;;;;;13.15;100.00;100172.09;7391307;19;20493;-55
2022/07/26 04:07:45;;;;;;;1.73;0.77;;;;;;;13.16;100.00;100176.47;7394069;19;20074;-55
2022/07/26 04:10:14;;;;;;;1.80;0.60;;;;;;;13.16;100.00;100174.44;7391785;19;20097;-55
2022/07/26 04:12:40;;;;;;;1.42;0.40;;;;;;;13.18;100.00;100174.72;7391039;19;20459;-55
2022/07/26 04:15:07;;;;;;;2.47;0.50;;;;;;;13.21;100.00;100173.72;7392357;19;20018;-55
2022/07/26 04:17:40;;;;;;;6.03;1.08;;;;;;;13.20;100.00;100172.22;7396833;19;20021;-55
2022/07/26 04:20:08;;;;;;;3.13;0.88;;;;;;;13.20;100.00;100177.03;7391550;19;20007;-55
2022/07/26 04:22:35;;;;;;;5.75;0.90;;;;;;;13.20;100.00;100177.03;7392571;19;20010;-55
2022/07/26 04:25:03;;;;;;;2.03;0.30;;;;;;;13.22;100.00;100180.88;7392482;19;20074;-55
2022/07/26 04:27:30;;;;;;;1.83;1.05;;;;;;;13.22;100.00;100180.88;7395537;19;20627;-55
2022/07/26 04:29:56;;;;;;;5.18;0.60;;;;;;;13.22;100.00;100175.28;7391877;19;20019;-55
2022/07/26 04:32:22;;;;;;;2.25;0.90;;;;;;;13.24;100.00;100181.16;7390675;19;20014;-56
2022/07/26 04:34:49;;;;;;;2.28;0.73;;;;;;;13.24;100.00;100174.78;7391263;19;20007;-56
2022/07/26 04:37:15;;;;;;;1.73;0.77;;;;;;;13.25;100.00;100174.31;7394642;19;20348;-56
2022/07/26 04:39:41;;;;;;;2.28;0.65;;;;;;;13.26;100.00;100181.44;7389964;19;20661;-56
2022/07/26 04:42:07;;;;;;;4.32;1.15;;;;;;;13.26;100.00;100186.25;7395120;19;20028;-56
2022/07/26 04:44:33;;;;;;;2.90;0.50;;;;;;;13.25;100.00;100185.50;7391430;19;20481;-56
2022/07/26 04:47:00;;;;;;;16.30;1.45;;;;;;;13.28;100.00;100183.75;7393818;19;20015;-56
2022/07/26 04:49:26;;;;;;;2.50;0.98;;;;;;;13.29;100.00;100185.31;7391245;19;20515;-56
2022/07/26 04:51:52;;;;;;;1.77;0.68;;;;;;;13.28;100.00;100184.53;7390881;19;20007;-56
2022/07/26 04:54:21;;;;;;;8.70;1.10;;;;;;;13.30;100.00;100189.63;7390649;19;20024;-56
2022/07/26 04:56:50;;;;;;;1.73;0.60;;;;;;;13.32;100.00;100193.47;7393328;19;20019;-56
2022/07/26 04:59:17;;;;;;;1.15;0.98;;;;;;;13.30;100.00;100187.59;7390257;19;20023;-56
2022/07/26 05:01:43;;;;;;;0.85;0.40;;;;;;;13.32;100.00;100190.69;7390734;19;20422;-56
2022/07/26 05:04:09;;;;;;;3.10;1.10;;;;;;;13.36;100.00;100196.09;7388782;19;20387;-56
2022/07/26 05:06:36;;;;;;;2.05;0.75;;;;;;;13.39;100.00;100195.88;7392617;19;20099;-56
2022/07/26 05:09:02;;;;;;;0.93;0.35;;;;;;;13.42;100.00;100202.53;7391102;19;20029;-56
2022/07/26 05:11:28;;;;;;;0.85;0.55;;;;;;;13.41;100.00;100198.97;7392985;19;20037;-56
2022/07/26 05:13:54;;;;;;;1.15;0.50;;;;;;;13.39;100.00;100200.69;7390742;19;20463;-56
2022/07/26 05:16:21;;;;;;;4.68;1.35;;;;;;;13.37;100.00;100203.22;7392107;19;20010;-56
2022/07/26 05:18:47;;;;;;;1.65;0.20;;;;;;;13.32;100.00;100201.88;7388730;19;20014;-56
2022/07/26 05:21:13;;;;;;;2.40;0.43;;;;;;;13.34;100.00;100204.19;7390341;19;20018;-56
2022/07/26 05:23:39;;;;;;;1.58;0.38;;;;;;;13.33;100.00;100202.66;7390444;19;20010;-56
2022/07/26 05:26:05;;;;;;;2.17;0.57;;;;;;;13.35;100.00;100212.09;7390906;19;20021;-56
2022/07/26 05:28:31;;;;;;;1.30;0.57;;;;;;;13.38;100.00;100207.56;7388606;19;20015;-56
2022/07/26 05:30:57;;;;;;;0.30;0.25;;;;;;;13.36;100.00;100208.03;7390753;19;20018;-56
2022/07/26 05:33:24;;;;;;;0.22;0.10;;;;;;;13.38;100.00;100213.91;7388242;19;20014;-56
2022/07/26 05:35:50;;;;;;;0.75;0.40;;;;;;;13.39;100.00;100211.88;7389430;19;20010;-56
2022/07/26 05:38:16;;;;;;;0.10;0.10;;;;;;;13.39;100.00;100212.66;7389505;19;20007;-56
2022/07/26 05:40:42;;;;;;;0.30;0.20;;;;;;;13.38;100.00;100211.09;7389769;19;20018;-56
2022/07/26 05:43:08;;;;;;;9.18;1.20;;;;;;;13.41;100.00;100215.75;7389678;19;20010;-56
2022/07/26 05:45:34;;;;;;;0.47;0.22;;;;;;;13.41;100.00;100221.34;7387819;19;20066;-56
2022/07/26 05:48:01;;;;;;;6.63;0.63;;;;;;;13.41;100.00;100224.13;7389505;19;20066;-56
2022/07/26 05:50:27;;;;;;;0.20;0.20;;;;;;;13.43;100.00;100218.81;7389234;19;20377;-55
2022/07/26 05:52:53;;;;;;;1.00;0.47;;;;;;;13.44;100.00;100214.78;7388166;19;20684;-56
2022/07/26 05:55:19;;;;;;;0.95;0.60;;;;;;;13.52;100.00;100221.50;7388586;19;20025;-56
2022/07/26 05:57:48;;;;;;;1.95;1.08;;;;;;;13.55;100.00;100237.34;7389800;19;20078;-56
2022/07/26 06:00:14;;;;;;;1.70;0.40;;;;;;;13.57;100.00;100236.84;7392242;19;20529;-56
2022/07/26 06:02:41;;;;;;;2.08;1.13;;;;;;;13.59;100.00;100232.31;7388946;19;20082;-56
2022/07/26 06:05:07;;;;;;;0.77;0.40;;;;;;;13.61;100.00;100234.59;7389366;19;20055;-56
2022/07/26 06:07:33;;;;;;;0.50;0.35;;;;;;;13.55;100.00;100236.56;7393509;19;20381;-56
2022/07/26 06:10:00;;;;;;;2.90;0.50;;;;;;;13.53;100.00;100245.44;7387920;19;20504;-56
2022/07/26 06:12:26;;;;;;;0.73;0.10;;;;;;;13.52;100.00;100246.69;7392941;19;20099;-56
2022/07/26 06:14:52;;;;;;;0.30;0.30;;;;;;;13.50;100.00;100240.81;7388385;19;20337;-56
2022/07/26 06:17:18;;;;;;;0.52;0.25;;;;;;;13.45;100.00;100235.13;7392222;19;20006;-56
2022/07/26 06:19:44;;;;;;;0.77;0.25;;;;;;;13.43;100.00;100241.22;7389464;19;20094;-56
2022/07/26 06:22:10;;;;;;;1.00;0.40;;;;;;;13.43;100.00;100244.00;7388972;19;20022;-56
2022/07/26 06:24:37;;;;;;;0.63;0.20;;;;;;;13.40;100.00;100247.78;7389110;19;20024;-56
2022/07/26 06:27:03;;;;;;;4.75;0.75;;;;;;;13.41;100.00;100254.13;7391915;19;20555;-56
2022/07/26 06:29:29;;;;;;;1.95;0.38;;;;;;;13.42;100.00;100250.88;7391083;19;20011;-56
2022/07/26 06:31:55;;;;;;;1.17;0.50;;;;;;;13.44;100.00;100248.34;7393816;19;20356;-56
2022/07/26 06:34:22;;;;;;;5.18;0.73;;;;;;;13.47;100.00;100246.63;7394079;19;20022;-56
2022/07/26 06:36:48;;;;;;;0.80;0.47;;;;;;;13.49;100.00;100250.44;7397725;19;20072;-56
2022/07/26 06:39:14;;;;;;;0.13;0.13;;;;;;;13.45;100.00;100255.47;7395066;19;20002;-56
2022/07/26 06:41:40;;;;;;;1.30;0.35;;;;;;;13.45;100.00;100249.09;7398204;19;20007;-61
2022/07/26 06:44:06;;;;;;;0.40;0.20;;;;;;;13.44;100.00;100253.94;7394899;19;20348;-61
2022/07/26 06:46:33;;;;;;;0.25;0.20;;;;;;;13.45;100.00;100254.69;7397206;19;20019;-61
2022/07/26 06:48:59;;;;;;;0.63;0.25;;;;;;;13.46;100.00;100262.63;7395286;19;20467;-62
2022/07/26 06:51:25;;;;;;;0.85;0.30;;;;;;;13.47;100.00;100258.56;7394653;19;20018;-61
2022/07/26 06:53:51;;;;;;;5.88;0.20;;;;;;;13.48;100.00;100260.13;7394326;19;20445;-61
2022/07/26 06:56:18;;;;;;;1.05;0.00;;;;;;;13.49;100.00;100261.63;7395704;19;20014;-61
2022/07/26 06:58:45;;;;;;;0.10;0.00;;;;;;;13.53;100.00;100270.63;7394039;19;20006;-61
2022/07/26 07:01:12;;;;;;;0.50;0.28;;;;;;;13.61;100.00;100271.75;7394821;19;20070;-61
2022/07/26 07:03:38;;;;;;;0.80;0.40;;;;;;;13.74;100.00;100265.84;7393937;19;20692;-61
2022/07/26 07:06:04;;;;;;;0.50;0.10;;;;;;;13.82;100.00;100271.81;7396677;19;20011;-60
2022/07/26 07:08:31;;;;;;;0.45;0.35;;;;;;;14.04;100.00;100277.69;7395241;19;20376;-60
2022/07/26 07:10:57;;;;;;;1.55;0.65;;;;;;;14.21;100.00;100267.47;7396501;19;20031;-60
2022/07/26 07:13:23;;;;;;;1.48;0.68;;;;;;;14.41;100.00;100273.09;7391759;19;20007;-60
2022/07/26 07:15:50;;;;;;;2.08;0.63;;;;;;;14.51;100.00;100276.53;7395174;19;20029;-60
2022/07/26 07:18:16;;;;;;;0.82;0.55;;;;;;;14.52;100.00;100273.22;7394869;19;20079;-60
2022/07/26 07:20:42;;;;;;;2.53;0.30;;;;;;;14.55;100.00;100272.25;7392497;19;20029;-60
2022/07/26 07:23:09;;;;;;;0.65;0.32;;;;;;;14.57;100.00;100280.94;7394241;19;20023;-60
2022/07/26 07:25:35;;;;;;;2.40;0.60;;;;;;;14.57;100.00;100280.94;7395154;19;20062;-60
2022/07/26 07:28:01;;;;;;;2.30;0.80;;;;;;;14.61;100.00;100284.28;7394510;19;20007;-60
2022/07/26 07:30:27;;;;;;;5.18;0.57;;;;;;;14.74;100.00;100281.91;7393239;19;20015;-60
2022/07/26 07:32:54;;;;;;;0.63;0.20;;;;;;;14.80;100.00;100282.72;7391888;19;20026;-60
2022/07/26 07:35:20;;;;;;;4.78;0.75;;;;;;;14.76;100.00;100282.16;7392384;19;20011;-60
2022/07/26 07:37:46;;;;;;;1.73;0.57;;;;;;;14.69;100.00;100293.81;7392229;19;20062;-60
2022/07/26 07:40:13;;;;;;;0.30;0.20;;;;;;;14.61;100.00;100298.31;7392925;19;20042;-60
2022/07/26 07:42:39;;;;;;;0.10;0.10;;;;;;;14.56;100.00;100290.59;7393703;19;20360;-60
2022/07/26 07:45:08;;;;;;;1.10;0.22;;;;;;;14.51;100.00;100294.09;7392453;19;20330;-60
2022/07/26 07:47:34;;;;;;;1.83;0.30;;;;;;;14.53;100.00;100291.56;7397710;19;20018;-60
2022/07/26 07:50:00;;;;;;;2.75;0.43;;;;;;;14.61;100.00;100291.94;7391943;19;20546;-60
2022/07/26 07:52:27;;;;;;;1.70;0.57;;;;;;;14.72;100.00;100287.22;7391210;19;20015;-60
2022/07/26 07:54:53;;;;;;;5.57;0.95;;;;;;;14.79;100.00;100286.78;7393594;19;20014;-60
2022/07/26 07:57:19;;;;;;;2.33;0.20;;;;;;;14.85;100.00;100290.44;7396650;19;20007;-60
2022/07/26 07:59:45;;;;;;;0.47;0.13;;;;;;;14.99;100.00;100294.38;7395430;19;20018;-60
2022/07/26 08:02:13;;;;;;;4.28;0.75;;;;;;;15.09;100.00;100292.94;7393093;19;20007;-60
2022/07/26 08:04:40;;;;;;;1.83;0.28;;;;;;;15.19;100.00;100295.09;7393055;19;20362;-60
2022/07/26 08:07:06;;;;;;;0.82;0.20;;;;;;;15.29;100.00;100292.09;7396339;19;20010;-60
2022/07/26 08:09:32;;;;;;;2.75;0.85;;;;;;;15.35;100.00;100292.91;7391130;19;20014;-59
2022/07/26 08:11:58;;;;;;;0.38;0.28;;;;;;;15.39;100.00;100297.03;7394742;19;20094;-59
2022/07/26 08:14:24;;;;;;;1.40;0.40;;;;;;;15.43;100.00;100294.81;7393360;19;20456;-59
2022/07/26 08:16:51;;;;;;;1.77;0.15;;;;;;;15.55;100.00;100298.47;7394881;19;20018;-59
2022/07/26 08:19:17;;;;;;;6.00;0.75;;;;;;;15.69;100.00;100300.34;7392458;19;20078;-59
2022/07/26 08:21:44;;;;;;;7.50;1.23;;;;;;;15.88;100.00;100307.09;7391339;19;20044;-59
2022/07/26 08:24:11;;;;;;;1.60;0.28;;;;;;;16.08;100.00;100297.78;7392318;19;20010;-59
2022/07/26 08:26:37;;;;;;;0.17;0.08;;;;;;;16.28;100.00;100300.44;7394393;19;20010;-59
2022/07/26 08:29:04;;;;;;;1.70;0.45;;;;;;;16.41;100.00;100292.31;7393530;19;20014;-59
2022/07/26 08:31:30;;;;;;;3.30;0.50;;;;;;;16.52;100.00;100298.78;7391666;19;20029;-59
2022/07/26 08:33:56;;;;;;;3.60;0.93;;;;;;;16.58;100.00;100290.38;7390874;19;20475;-59
2022/07/26 08:36:23;;;;;;;0.75;0.32;;;;;;;16.60;100.00;100302.66;7393231;19;20011;-59
2022/07/26 08:38:51;;;;;;;3.83;0.30;;;;;;;16.46;100.00;100297.97;7391495;19;20329;-59
2022/07/26 08:41:17;;;;;;;0.40;0.00;;;;;;;16.42;100.00;100300.25;7393363;19;20010;-59
2022/07/26 08:43:44;;;;;;;1.08;0.13;;;;;;;16.44;100.00;100303.31;7391725;19;20772;-59
2022/07/26 08:46:11;;;;;;;1.15;0.30;;;;;;;16.71;100.00;100299.09;7391922;19;20017;-59
2022/07/26 08:48:38;;;;;;;0.32;0.20;;;;;;;16.86;100.00;100293.25;7391236;19;20011;-59
2022/07/26 08:51:08;;;;;;;0.40;0.10;;;;;;;16.80;100.00;100295.28;7390870;19;20345;-59
2022/07/26 08:53:38;;;;;;;0.88;0.32;;;;;;;16.81;100.00;100303.22;7388164;19;20003;-59
2022/07/26 08:56:05;;;;;;;1.75;0.52;;;;;;;16.83;100.00;100305.53;7392991;19;20015;-59
2022/07/26 08:58:34;;;;;;;1.17;0.10;;;;;;;16.81;100.00;100302.44;7389687;19;20015;-59
2022/07/26 09:01:13;;;;;;;0.57;0.15;;;;;;;16.83;100.00;100300.66;7395401;19;20015;-59
2022/07/26 09:03:41;;;;;;;2.55;0.30;;;;;;;16.70;100.00;100310.88;7391785;19;20018;-59
2022/07/26 09:06:18;;;;;;;5.35;1.40;;;;;;;16.38;100.00;100316.59;7392482;19;20015;-58
2022/07/26 09:08:52;;;;;;;6.07;0.40;;;;;;;16.24;100.00;100319.59;7390244;19;20078;-59
2022/07/26 09:11:28;;;;;;;5.28;0.47;;;;;;;16.31;100.00;100317.06;7393604;19;20080;-59
2022/07/26 09:14:00;;;;;;;2.45;0.30;;;;;;;16.43;100.00;100315.84;7390909;19;20006;-58
2022/07/26 09:16:27;;;;;;;1.38;0.20;;;;;;;16.62;100.00;100319.78;7392709;19;20080;-58
2022/07/26 09:18:54;;;;;;;5.40;1.08;;;;;;;16.84;100.00;100315.50;7389143;19;20082;-58
2022/07/26 09:21:30;;;;;;;0.30;0.10;;;;;;;17.28;100.00;100319.16;7389344;19;20015;-59
2022/07/26 09:23:57;;;;;;;3.60;0.30;;;;;;;17.57;100.00;100317.91;7390467;19;20010;-59
2022/07/26 09:26:24;;;;;;;4.57;0.40;;;;;;;17.93;100.00;100311.19;7391981;19;20011;-59
2022/07/26 09:29:08;;;;;;;4.95;1.25;;;;;;;18.21;100.00;100316.03;7388961;19;20467;-59
2022/07/26 09:31:36;;;;;;;7.40;0.28;;;;;;;18.07;100.00;100312.22;7389908;19;20007;-58
2022/07/26 09:34:04;;;;;;;5.38;0.40;;;;;;;18.05;100.00;100314.78;7390151;19;20009;-58
2022/07/26 09:36:31;;;;;;;0.45;0.20;;;;;;;18.07;100.00;100318.63;7389728;19;20066;-58
2022/07/26 09:39:02;;;;;;;2.13;0.30;;;;;;;18.21;100.00;100327.28;7389372;19;20011;-59
2022/07/26 09:41:34;;;;;;;3.42;0.73;;;;;;;18.10;100.00;100328.84;7392123;19;20571;-58
2022/07/26 09:44:04;;;;;;;0.52;0.10;;;;;;;17.83;100.00;100326.84;7390145;19;20312;-58
2022/07/26 09:46:33;;;;;;;0.77;0.20;;;;;;;17.58;100.00;100330.72;7390782;19;20018;-58
2022/07/26 09:49:18;;;;;;;1.67;0.43;;;;;;;17.25;100.00;100342.72;7390378;19;20019;-57
2022/07/26 09:51:46;;;;;;;2.92;0.70;;;;;;;17.10;100.00;100335.75;7389892;19;20070;-57
2022/07/26 09:54:19;;;;;;;2.97;1.17;;;;;;;17.10;100.00;100342.16;7389452;19;20015;-57
2022/07/26 09:56:51;;;;;;;1.55;0.57;;;;;;;17.16;100.00;100344.97;7392001;19;20006;-57
2022/07/26 09:59:20;;;;;;;4.38;1.50;;;;;;;17.14;100.00;100348.31;7389591;19;20014;-57
2022/07/26 10:01:47;;;;;;;2.95;0.55;;;;;;;17.16;100.00;100336.53;7389310;19;20006;-57
2022/07/26 10:04:14;;;;;;;1.60;0.28;;;;;;;17.25;100.00;100344.75;7393009;19;20356;-56
2022/07/26 10:06:41;;;;;;;3.38;0.95;;;;;;;17.38;100.00;100345.00;7399258;19;20015;-56
2022/07/26 10:09:08;;;;;;;0.60;0.45;;;;;;;17.51;100.00;100336.88;7396627;19;20047;-56
2022/07/26 10:11:40;;;;;;;3.83;0.65;;;;;;;17.63;100.00;100341.19;7399695;19;20014;-56
2022/07/26 10:14:31;;;;;;;0.60;0.60;;;;;;;17.68;100.00;100340.44;7394392;19;20026;-56
2022/07/26 10:16:59;;;;;;;2.95;0.88;;;;;;;17.69;100.00;100341.22;7398459;19;20007;-56
2022/07/26 10:19:45;;;;;;;2.47;0.60;;;;;;;17.75;100.00;100341.97;7395838;19;20439;-56
2022/07/26 10:22:26;;;;;;;3.05;0.30;;;;;;;17.90;100.00;100343.25;7396073;19;20045;-56
2022/07/26 10:24:53;;;;;;;0.93;0.38;;;;;;;18.01;100.00;100340.41;7395728;19;20069;-56
2022/07/26 10:27:39;;;;;;;1.02;0.73;;;;;;;18.16;100.00;100349.34;7398575;19;20011;-56
2022/07/26 10:30:24;;;;;;;0.52;0.28;;;;;;;18.26;100.00;100349.06;7395726;19;20486;-56
2022/07/26 10:32:50;;;;;;;6.63;1.50;;;;;;;18.30;100.00;100344.69;7393498;19;20018;-56
2022/07/26 10:35:35;;;;;;;1.85;0.75;;;;;;;18.47;100.00;100341.84;7395201;19;20016;-56
2022/07/26 10:38:07;;;;;;;2.95;1.05;;;;;;;18.67;100.00;100341.50;7394689;19;20033;-56
2022/07/26 10:40:34;;;;;;;3.10;1.08;;;;;;;18.84;100.00;100342.97;7395123;19;20071;-56
2022/07/26 10:43:12;;;;;;;2.17;1.35;;;;;;;19.01;100.00;100347.75;7396294;19;20038;-56
2022/07/26 10:45:39;;;;;;;7.57;1.25;;;;;;;19.06;100.00;100346.97;7395164;19;20014;-56
2022/07/26 10:48:12;;;;;;;2.65;1.30;;;;;;;19.03;100.00;100343.13;7395080;19;20018;-56
2022/07/26 10:50:41;;;;;;;1.08;0.82;;;;;;;18.72;100.00;100346.34;7394600;19;20011;-56
2022/07/26 10:53:09;;;;;;;1.77;0.82;;;;;;;18.31;100.00;100356.72;7393555;19;20066;-56
2022/07/26 10:55:47;;;;;;;3.38;1.52;;;;;;;18.01;100.00;100348.88;7393536;19;20410;-56
2022/07/26 10:58:14;;;;;;;1.83;1.10;;;;;;;17.90;100.00;100351.69;7394756;19;20809;-56
2022/07/26 11:00:53;;;;;;;2.40;0.77;;;;;;;17.77;100.00;100364.78;7398140;19;20014;-56
2022/07/26 11:03:19;;;;;;;1.02;0.50;;;;;;;17.62;100.00;100359.41;7393755;19;20010;-56
2022/07/26 11:05:45;;;;;;;1.48;0.75;;;;;;;17.58;100.00;100367.34;7397900;19;20066;-56
2022/07/26 11:08:12;;;;;;;1.25;0.50;;;;;;;17.56;100.00;100369.91;7394661;19;20352;-56
2022/07/26 11:10:45;;;;;;;2.13;0.73;;;;;;;17.59;100.00;100360.41;7395759;19;20010;-56
2022/07/26 11:13:16;;;;;;;2.95;0.60;;;;;;;17.58;100.00;100358.88;7390438;19;20052;-56
2022/07/26 11:15:50;;;;;;;;;;;;;;;17.55;100.00;100359.13;7394112;19;20534;-56
2022/07/26 11:18:21;;;;;;;2.78;0.47;;;;;;;17.57;100.00;100365.00;7393535;19;19923;-57
2022/07/26 11:20:51;;;;;;;1.10;0.63;;;;;;;17.71;100.00;100361.97;7394608;19;20035;-57
2022/07/26 11:23:25;;;;;;;0.40;0.20;;;;;;;17.83;100.00;100363.47;7394586;19;20044;-57